sensor_id;sensor_type;location;lat;lon;timestamp;P1;durP1;ratioP1;P2;durP2;ratioP2
31402;SDS011;18039;52.188;21.024;2023-05-23T00:00:24;16.42;;;7.20;;
31402;SDS011;18039;52.188;21.024;2023-05-23T00:03:11;13.82;;;8.00;;
31402;SDS011;18039;52.188;21.024;2023-05-23T00:05:39;22.42;;;8.32;;
31402;SDS011;18039;52.188;21.024;2023-05-23T00:08:06;23.20;;;8.10;;
31402;SDS011;18039;52.188;21.024;2023-05-23T00:10:33;14.73;;;7.53;;
31402;SDS011;18039;52.188;21.024;2023-05-23T00:13:00;15.40;;;7.20;;
31402;SDS011;18039;52.188;21.024;2023-05-23T00:15:28;15.90;;;7.50;;
31402;SDS011;18039;52.188;21.024;2023-05-23T00:17:55;19.73;;;8.02;;
31402;SDS011;18039;52.188;21.024;2023-05-23T00:20:23;14.10;;;7.72;;
31402;SDS011;18039;52.188;21.024;2023-05-23T00:22:51;14.80;;;7.82;;
31402;SDS011;18039;52.188;21.024;2023-05-23T00:25:19;15.90;;;7.53;;
31402;SDS011;18039;52.188;21.024;2023-05-23T00:27:47;18.02;;;7.82;;
31402;SDS011;18039;52.188;21.024;2023-05-23T00:30:14;14.98;;;7.13;;
31402;SDS011;18039;52.188;21.024;2023-05-23T00:32:43;19.10;;;8.40;;
31402;SDS011;18039;52.188;21.024;2023-05-23T00:35:10;13.18;;;7.38;;
31402;SDS011;18039;52.188;21.024;2023-05-23T00:37:38;19.55;;;8.23;;
31402;SDS011;18039;52.188;21.024;2023-05-23T00:40:06;13.80;;;7.55;;
31402;SDS011;18039;52.188;21.024;2023-05-23T00:42:34;15.85;;;8.38;;
31402;SDS011;18039;52.188;21.024;2023-05-23T00:45:01;14.77;;;7.80;;
31402;SDS011;18039;52.188;21.024;2023-05-23T00:47:29;12.07;;;7.50;;
31402;SDS011;18039;52.188;21.024;2023-05-23T00:49:56;12.30;;;7.18;;
31402;SDS011;18039;52.188;21.024;2023-05-23T00:52:24;11.35;;;8.20;;
31402;SDS011;18039;52.188;21.024;2023-05-23T00:54:51;12.98;;;7.00;;
31402;SDS011;18039;52.188;21.024;2023-05-23T00:57:19;12.73;;;7.72;;
31402;SDS011;18039;52.188;21.024;2023-05-23T00:59:46;10.77;;;6.90;;
31402;SDS011;18039;52.188;21.024;2023-05-23T01:02:14;21.40;;;7.90;;
31402;SDS011;18039;52.188;21.024;2023-05-23T01:04:41;16.80;;;7.70;;
31402;SDS011;18039;52.188;21.024;2023-05-23T01:07:10;15.85;;;8.40;;
31402;SDS011;18039;52.188;21.024;2023-05-23T01:09:38;12.98;;;7.32;;
31402;SDS011;18039;52.188;21.024;2023-05-23T01:12:12;15.38;;;7.65;;
31402;SDS011;18039;52.188;21.024;2023-05-23T01:15:04;12.32;;;7.20;;
31402;SDS011;18039;52.188;21.024;2023-05-23T01:20:11;14.30;;;7.88;;
31402;SDS011;18039;52.188;21.024;2023-05-23T01:28:08;12.45;;;7.28;;
31402;SDS011;18039;52.188;21.024;2023-05-23T01:30:40;13.63;;;7.78;;
31402;SDS011;18039;52.188;21.024;2023-05-23T01:33:12;10.70;;;6.90;;
31402;SDS011;18039;52.188;21.024;2023-05-23T01:35:41;14.43;;;7.20;;
31402;SDS011;18039;52.188;21.024;2023-05-23T01:38:09;12.82;;;7.80;;
31402;SDS011;18039;52.188;21.024;2023-05-23T01:40:37;13.38;;;6.97;;
31402;SDS011;18039;52.188;21.024;2023-05-23T01:43:05;15.88;;;8.52;;
31402;SDS011;18039;52.188;21.024;2023-05-23T01:45:33;12.07;;;6.95;;
31402;SDS011;18039;52.188;21.024;2023-05-23T01:48:02;14.77;;;6.80;;
31402;SDS011;18039;52.188;21.024;2023-05-23T01:50:31;13.02;;;6.72;;
31402;SDS011;18039;52.188;21.024;2023-05-23T01:52:59;12.95;;;7.47;;
31402;SDS011;18039;52.188;21.024;2023-05-23T01:55:27;13.77;;;7.85;;
31402;SDS011;18039;52.188;21.024;2023-05-23T01:57:55;11.07;;;6.90;;
31402;SDS011;18039;52.188;21.024;2023-05-23T02:00:23;15.07;;;8.27;;
31402;SDS011;18039;52.188;21.024;2023-05-23T02:02:51;24.60;;;8.45;;
31402;SDS011;18039;52.188;21.024;2023-05-23T02:05:18;12.18;;;7.38;;
31402;SDS011;18039;52.188;21.024;2023-05-23T02:07:46;11.77;;;7.25;;
31402;SDS011;18039;52.188;21.024;2023-05-23T02:10:16;13.25;;;7.85;;
31402;SDS011;18039;52.188;21.024;2023-05-23T02:12:43;17.35;;;7.10;;
31402;SDS011;18039;52.188;21.024;2023-05-23T02:15:10;12.13;;;7.20;;
31402;SDS011;18039;52.188;21.024;2023-05-23T02:17:38;20.75;;;8.02;;
31402;SDS011;18039;52.188;21.024;2023-05-23T02:20:07;12.63;;;7.80;;
31402;SDS011;18039;52.188;21.024;2023-05-23T02:22:35;10.88;;;7.75;;
31402;SDS011;18039;52.188;21.024;2023-05-23T02:25:02;15.00;;;7.28;;
31402;SDS011;18039;52.188;21.024;2023-05-23T02:27:31;11.65;;;6.88;;
31402;SDS011;18039;52.188;21.024;2023-05-23T02:29:58;14.82;;;7.03;;
31402;SDS011;18039;52.188;21.024;2023-05-23T02:32:27;10.50;;;7.30;;
31402;SDS011;18039;52.188;21.024;2023-05-23T02:34:55;16.85;;;7.55;;
31402;SDS011;18039;52.188;21.024;2023-05-23T02:37:23;16.55;;;7.93;;
31402;SDS011;18039;52.188;21.024;2023-05-23T02:39:50;13.63;;;7.88;;
31402;SDS011;18039;52.188;21.024;2023-05-23T02:42:18;18.55;;;8.25;;
31402;SDS011;18039;52.188;21.024;2023-05-23T02:44:45;18.08;;;8.38;;
31402;SDS011;18039;52.188;21.024;2023-05-23T02:47:12;15.48;;;8.20;;
31402;SDS011;18039;52.188;21.024;2023-05-23T02:49:39;21.17;;;8.38;;
31402;SDS011;18039;52.188;21.024;2023-05-23T02:52:07;18.65;;;8.13;;
31402;SDS011;18039;52.188;21.024;2023-05-23T02:54:34;12.05;;;7.90;;
31402;SDS011;18039;52.188;21.024;2023-05-23T02:57:02;12.60;;;8.00;;
31402;SDS011;18039;52.188;21.024;2023-05-23T02:59:32;12.75;;;8.32;;
31402;SDS011;18039;52.188;21.024;2023-05-23T03:02:00;13.43;;;7.57;;
31402;SDS011;18039;52.188;21.024;2023-05-23T03:04:27;16.10;;;7.85;;
31402;SDS011;18039;52.188;21.024;2023-05-23T03:06:55;15.40;;;7.80;;
31402;SDS011;18039;52.188;21.024;2023-05-23T03:09:25;18.25;;;9.05;;
31402;SDS011;18039;52.188;21.024;2023-05-23T03:11:53;15.25;;;7.78;;
31402;SDS011;18039;52.188;21.024;2023-05-23T03:14:20;15.15;;;7.88;;
31402;SDS011;18039;52.188;21.024;2023-05-23T03:16:48;16.30;;;7.05;;
31402;SDS011;18039;52.188;21.024;2023-05-23T03:19:15;13.40;;;7.72;;
31402;SDS011;18039;52.188;21.024;2023-05-23T03:21:44;16.15;;;7.93;;
31402;SDS011;18039;52.188;21.024;2023-05-23T03:24:11;31.02;;;9.38;;
31402;SDS011;18039;52.188;21.024;2023-05-23T03:26:38;23.15;;;9.68;;
31402;SDS011;18039;52.188;21.024;2023-05-23T03:29:05;17.52;;;8.60;;
31402;SDS011;18039;52.188;21.024;2023-05-23T03:31:33;14.15;;;7.85;;
31402;SDS011;18039;52.188;21.024;2023-05-23T03:34:01;14.23;;;7.93;;
31402;SDS011;18039;52.188;21.024;2023-05-23T03:36:28;18.17;;;8.75;;
31402;SDS011;18039;52.188;21.024;2023-05-23T03:38:59;32.20;;;9.80;;
31402;SDS011;18039;52.188;21.024;2023-05-23T03:41:27;41.35;;;11.63;;
31402;SDS011;18039;52.188;21.024;2023-05-23T03:43:54;19.52;;;8.60;;
31402;SDS011;18039;52.188;21.024;2023-05-23T03:46:22;17.30;;;9.00;;
31402;SDS011;18039;52.188;21.024;2023-05-23T03:48:49;16.80;;;8.55;;
31402;SDS011;18039;52.188;21.024;2023-05-23T03:51:17;19.50;;;8.10;;
31402;SDS011;18039;52.188;21.024;2023-05-23T03:53:44;17.27;;;8.00;;
31402;SDS011;18039;52.188;21.024;2023-05-23T03:56:13;15.40;;;7.68;;
31402;SDS011;18039;52.188;21.024;2023-05-23T03:58:40;13.85;;;7.53;;
31402;SDS011;18039;52.188;21.024;2023-05-23T04:01:13;15.60;;;7.72;;
31402;SDS011;18039;52.188;21.024;2023-05-23T04:03:40;16.85;;;7.72;;
31402;SDS011;18039;52.188;21.024;2023-05-23T04:06:08;19.58;;;8.30;;
31402;SDS011;18039;52.188;21.024;2023-05-23T04:08:42;17.88;;;7.47;;
31402;SDS011;18039;52.188;21.024;2023-05-23T04:11:10;14.85;;;7.28;;
31402;SDS011;18039;52.188;21.024;2023-05-23T04:13:39;15.25;;;8.20;;
31402;SDS011;18039;52.188;21.024;2023-05-23T04:16:10;16.37;;;7.50;;
31402;SDS011;18039;52.188;21.024;2023-05-23T04:18:37;18.42;;;8.90;;
31402;SDS011;18039;52.188;21.024;2023-05-23T04:21:07;12.63;;;7.28;;
31402;SDS011;18039;52.188;21.024;2023-05-23T04:23:38;15.65;;;7.25;;
31402;SDS011;18039;52.188;21.024;2023-05-23T04:26:06;18.73;;;7.50;;
31402;SDS011;18039;52.188;21.024;2023-05-23T04:28:39;14.60;;;7.53;;
31402;SDS011;18039;52.188;21.024;2023-05-23T04:31:07;12.35;;;7.10;;
31402;SDS011;18039;52.188;21.024;2023-05-23T04:33:35;11.48;;;7.35;;
31402;SDS011;18039;52.188;21.024;2023-05-23T04:36:03;13.73;;;6.63;;
31402;SDS011;18039;52.188;21.024;2023-05-23T04:38:31;13.43;;;6.43;;
31402;SDS011;18039;52.188;21.024;2023-05-23T04:40:59;11.90;;;6.03;;
31402;SDS011;18039;52.188;21.024;2023-05-23T04:43:26;15.98;;;6.10;;
31402;SDS011;18039;52.188;21.024;2023-05-23T04:46:02;10.63;;;5.65;;
31402;SDS011;18039;52.188;21.024;2023-05-23T04:48:35;16.05;;;6.32;;
31402;SDS011;18039;52.188;21.024;2023-05-23T04:51:05;18.63;;;7.07;;
31402;SDS011;18039;52.188;21.024;2023-05-23T04:53:33;14.00;;;5.68;;
31402;SDS011;18039;52.188;21.024;2023-05-23T04:56:01;13.27;;;5.50;;
31402;SDS011;18039;52.188;21.024;2023-05-23T04:58:29;13.57;;;6.03;;
31402;SDS011;18039;52.188;21.024;2023-05-23T05:01:02;9.10;;;5.80;;
31402;SDS011;18039;52.188;21.024;2023-05-23T05:03:30;15.30;;;6.25;;
31402;SDS011;18039;52.188;21.024;2023-05-23T05:05:58;11.68;;;5.88;;
31402;SDS011;18039;52.188;21.024;2023-05-23T05:08:25;9.43;;;5.20;;
31402;SDS011;18039;52.188;21.024;2023-05-23T05:10:54;8.20;;;4.85;;
31402;SDS011;18039;52.188;21.024;2023-05-23T05:13:22;11.02;;;5.93;;
31402;SDS011;18039;52.188;21.024;2023-05-23T05:15:52;7.90;;;5.53;;
31402;SDS011;18039;52.188;21.024;2023-05-23T05:18:20;12.88;;;5.80;;
31402;SDS011;18039;52.188;21.024;2023-05-23T05:20:48;11.55;;;5.32;;
31402;SDS011;18039;52.188;21.024;2023-05-23T05:23:15;12.55;;;5.53;;
31402;SDS011;18039;52.188;21.024;2023-05-23T05:25:43;18.60;;;5.85;;
31402;SDS011;18039;52.188;21.024;2023-05-23T05:28:12;13.63;;;5.70;;
31402;SDS011;18039;52.188;21.024;2023-05-23T05:30:43;8.93;;;5.03;;
31402;SDS011;18039;52.188;21.024;2023-05-23T05:33:12;10.23;;;4.97;;
31402;SDS011;18039;52.188;21.024;2023-05-23T05:35:40;6.45;;;4.45;;
31402;SDS011;18039;52.188;21.024;2023-05-23T05:38:07;14.27;;;5.53;;
31402;SDS011;18039;52.188;21.024;2023-05-23T05:40:38;10.63;;;4.97;;
31402;SDS011;18039;52.188;21.024;2023-05-23T05:43:06;8.52;;;4.47;;
31402;SDS011;18039;52.188;21.024;2023-05-23T05:45:33;8.57;;;4.65;;
31402;SDS011;18039;52.188;21.024;2023-05-23T05:48:01;10.82;;;4.75;;
31402;SDS011;18039;52.188;21.024;2023-05-23T05:50:28;11.00;;;4.97;;
31402;SDS011;18039;52.188;21.024;2023-05-23T05:52:56;10.07;;;4.25;;
31402;SDS011;18039;52.188;21.024;2023-05-23T05:55:24;9.27;;;4.45;;
31402;SDS011;18039;52.188;21.024;2023-05-23T05:57:53;8.77;;;4.63;;
31402;SDS011;18039;52.188;21.024;2023-05-23T06:00:23;10.73;;;4.93;;
31402;SDS011;18039;52.188;21.024;2023-05-23T06:02:55;9.30;;;4.50;;
31402;SDS011;18039;52.188;21.024;2023-05-23T06:05:34;10.02;;;4.72;;
31402;SDS011;18039;52.188;21.024;2023-05-23T06:08:03;8.55;;;4.25;;
31402;SDS011;18039;52.188;21.024;2023-05-23T06:10:30;10.82;;;4.53;;
31402;SDS011;18039;52.188;21.024;2023-05-23T06:12:57;7.85;;;4.28;;
31402;SDS011;18039;52.188;21.024;2023-05-23T06:15:26;13.20;;;5.35;;
31402;SDS011;18039;52.188;21.024;2023-05-23T06:17:53;9.43;;;4.40;;
31402;SDS011;18039;52.188;21.024;2023-05-23T06:20:21;10.75;;;4.32;;
31402;SDS011;18039;52.188;21.024;2023-05-23T06:22:48;15.43;;;4.32;;
31402;SDS011;18039;52.188;21.024;2023-05-23T06:25:16;18.05;;;4.25;;
31402;SDS011;18039;52.188;21.024;2023-05-23T06:27:45;14.23;;;5.15;;
31402;SDS011;18039;52.188;21.024;2023-05-23T06:30:13;10.45;;;4.13;;
31402;SDS011;18039;52.188;21.024;2023-05-23T06:32:40;10.70;;;4.47;;
31402;SDS011;18039;52.188;21.024;2023-05-23T06:35:08;7.22;;;4.07;;
31402;SDS011;18039;52.188;21.024;2023-05-23T06:37:36;13.10;;;4.20;;
31402;SDS011;18039;52.188;21.024;2023-05-23T06:40:03;5.43;;;3.42;;
31402;SDS011;18039;52.188;21.024;2023-05-23T06:42:31;8.18;;;3.80;;
31402;SDS011;18039;52.188;21.024;2023-05-23T06:45:15;10.00;;;4.20;;
31402;SDS011;18039;52.188;21.024;2023-05-23T06:47:43;16.90;;;4.55;;
31402;SDS011;18039;52.188;21.024;2023-05-23T06:50:12;12.25;;;4.40;;
31402;SDS011;18039;52.188;21.024;2023-05-23T06:52:40;10.93;;;3.63;;
31402;SDS011;18039;52.188;21.024;2023-05-23T06:55:09;12.25;;;4.18;;
31402;SDS011;18039;52.188;21.024;2023-05-23T06:57:42;12.02;;;3.92;;
31402;SDS011;18039;52.188;21.024;2023-05-23T07:00:10;12.40;;;3.90;;
31402;SDS011;18039;52.188;21.024;2023-05-23T07:02:54;12.75;;;3.78;;
31402;SDS011;18039;52.188;21.024;2023-05-23T07:05:22;10.60;;;4.00;;
31402;SDS011;18039;52.188;21.024;2023-05-23T07:07:50;7.05;;;3.28;;
31402;SDS011;18039;52.188;21.024;2023-05-23T07:10:18;9.25;;;3.58;;
31402;SDS011;18039;52.188;21.024;2023-05-23T07:12:48;7.15;;;3.55;;
31402;SDS011;18039;52.188;21.024;2023-05-23T07:15:16;11.93;;;4.00;;
31402;SDS011;18039;52.188;21.024;2023-05-23T07:17:53;5.00;;;3.03;;
31402;SDS011;18039;52.188;21.024;2023-05-23T07:20:22;5.45;;;2.88;;
31402;SDS011;18039;52.188;21.024;2023-05-23T07:22:55;7.03;;;3.20;;
31402;SDS011;18039;52.188;21.024;2023-05-23T07:25:24;5.95;;;2.90;;
31402;SDS011;18039;52.188;21.024;2023-05-23T07:27:53;6.70;;;3.15;;
31402;SDS011;18039;52.188;21.024;2023-05-23T07:30:22;6.20;;;3.40;;
31402;SDS011;18039;52.188;21.024;2023-05-23T07:32:49;10.05;;;3.40;;
31402;SDS011;18039;52.188;21.024;2023-05-23T07:35:18;11.55;;;2.78;;
31402;SDS011;18039;52.188;21.024;2023-05-23T07:37:53;5.15;;;2.47;;
31402;SDS011;18039;52.188;21.024;2023-05-23T07:40:21;6.50;;;2.80;;
31402;SDS011;18039;52.188;21.024;2023-05-23T07:42:48;7.88;;;2.70;;
31402;SDS011;18039;52.188;21.024;2023-05-23T07:45:16;3.08;;;2.22;;
31402;SDS011;18039;52.188;21.024;2023-05-23T07:47:43;3.90;;;2.50;;
31402;SDS011;18039;52.188;21.024;2023-05-23T07:50:12;7.70;;;3.17;;
31402;SDS011;18039;52.188;21.024;2023-05-23T07:52:39;4.80;;;2.60;;
31402;SDS011;18039;52.188;21.024;2023-05-23T07:55:11;8.25;;;2.60;;
31402;SDS011;18039;52.188;21.024;2023-05-23T07:57:38;4.10;;;2.63;;
31402;SDS011;18039;52.188;21.024;2023-05-23T08:00:07;5.60;;;2.60;;
31402;SDS011;18039;52.188;21.024;2023-05-23T08:02:40;5.50;;;2.88;;
31402;SDS011;18039;52.188;21.024;2023-05-23T08:05:16;4.32;;;2.40;;
31402;SDS011;18039;52.188;21.024;2023-05-23T08:07:47;10.05;;;2.97;;
31402;SDS011;18039;52.188;21.024;2023-05-23T08:10:15;4.80;;;2.42;;
31402;SDS011;18039;52.188;21.024;2023-05-23T08:12:42;6.63;;;2.70;;
31402;SDS011;18039;52.188;21.024;2023-05-23T08:15:13;7.85;;;3.10;;
31402;SDS011;18039;52.188;21.024;2023-05-23T08:17:45;7.72;;;3.08;;
31402;SDS011;18039;52.188;21.024;2023-05-23T08:20:13;5.25;;;2.75;;
31402;SDS011;18039;52.188;21.024;2023-05-23T08:22:40;5.72;;;2.60;;
31402;SDS011;18039;52.188;21.024;2023-05-23T08:25:09;8.57;;;3.03;;
31402;SDS011;18039;52.188;21.024;2023-05-23T08:27:38;6.60;;;2.80;;
31402;SDS011;18039;52.188;21.024;2023-05-23T08:30:23;4.85;;;2.92;;
31402;SDS011;18039;52.188;21.024;2023-05-23T08:32:52;5.45;;;3.13;;
31402;SDS011;18039;52.188;21.024;2023-05-23T08:35:22;3.95;;;2.38;;
31402;SDS011;18039;52.188;21.024;2023-05-23T08:37:49;6.53;;;2.40;;
31402;SDS011;18039;52.188;21.024;2023-05-23T08:40:19;8.27;;;2.75;;
31402;SDS011;18039;52.188;21.024;2023-05-23T08:43:01;8.38;;;2.75;;
31402;SDS011;18039;52.188;21.024;2023-05-23T08:45:29;6.38;;;3.10;;
31402;SDS011;18039;52.188;21.024;2023-05-23T08:47:58;6.70;;;2.70;;
31402;SDS011;18039;52.188;21.024;2023-05-23T08:50:29;6.10;;;2.97;;
31402;SDS011;18039;52.188;21.024;2023-05-23T08:52:57;7.85;;;2.60;;
31402;SDS011;18039;52.188;21.024;2023-05-23T08:55:27;8.00;;;2.50;;
31402;SDS011;18039;52.188;21.024;2023-05-23T08:57:57;7.07;;;2.60;;
31402;SDS011;18039;52.188;21.024;2023-05-23T09:00:43;4.10;;;2.30;;
31402;SDS011;18039;52.188;21.024;2023-05-23T09:03:11;5.72;;;2.10;;
31402;SDS011;18039;52.188;21.024;2023-05-23T09:05:48;7.30;;;2.47;;
31402;SDS011;18039;52.188;21.024;2023-05-23T09:08:17;7.93;;;2.38;;
31402;SDS011;18039;52.188;21.024;2023-05-23T09:10:48;5.53;;;2.20;;
31402;SDS011;18039;52.188;21.024;2023-05-23T09:18:42;5.72;;;2.47;;
31402;SDS011;18039;52.188;21.024;2023-05-23T09:21:13;13.70;;;4.22;;
31402;SDS011;18039;52.188;21.024;2023-05-23T09:23:54;10.05;;;2.60;;
31402;SDS011;18039;52.188;21.024;2023-05-23T09:26:22;16.52;;;2.70;;
31402;SDS011;18039;52.188;21.024;2023-05-23T09:28:50;11.45;;;3.13;;
31402;SDS011;18039;52.188;21.024;2023-05-23T09:31:17;7.97;;;2.40;;
31402;SDS011;18039;52.188;21.024;2023-05-23T09:33:45;4.22;;;2.00;;
31402;SDS011;18039;52.188;21.024;2023-05-23T09:36:15;5.32;;;2.10;;
31402;SDS011;18039;52.188;21.024;2023-05-23T09:38:44;6.65;;;2.17;;
31402;SDS011;18039;52.188;21.024;2023-05-23T09:41:13;7.28;;;2.65;;
31402;SDS011;18039;52.188;21.024;2023-05-23T09:43:50;3.10;;;2.33;;
31402;SDS011;18039;52.188;21.024;2023-05-23T09:46:20;4.03;;;2.22;;
31402;SDS011;18039;52.188;21.024;2023-05-23T09:48:48;6.07;;;2.78;;
31402;SDS011;18039;52.188;21.024;2023-05-23T09:51:19;3.55;;;1.95;;
31402;SDS011;18039;52.188;21.024;2023-05-23T09:53:48;7.70;;;2.25;;
31402;SDS011;18039;52.188;21.024;2023-05-23T09:56:16;8.73;;;2.88;;
31402;SDS011;18039;52.188;21.024;2023-05-23T09:58:47;5.32;;;2.30;;
31402;SDS011;18039;52.188;21.024;2023-05-23T10:01:16;5.72;;;2.33;;
31402;SDS011;18039;52.188;21.024;2023-05-23T10:06:24;10.10;;;2.45;;
31402;SDS011;18039;52.188;21.024;2023-05-23T10:09:03;11.32;;;2.83;;
31402;SDS011;18039;52.188;21.024;2023-05-23T10:14:00;10.15;;;2.90;;
31402;SDS011;18039;52.188;21.024;2023-05-23T10:16:39;13.30;;;2.58;;
31402;SDS011;18039;52.188;21.024;2023-05-23T10:19:19;5.82;;;2.83;;
31402;SDS011;18039;52.188;21.024;2023-05-23T10:21:49;6.57;;;2.30;;
31402;SDS011;18039;52.188;21.024;2023-05-23T10:24:23;4.88;;;2.42;;
31402;SDS011;18039;52.188;21.024;2023-05-23T10:26:51;6.25;;;1.95;;
31402;SDS011;18039;52.188;21.024;2023-05-23T10:29:20;7.35;;;2.35;;
31402;SDS011;18039;52.188;21.024;2023-05-23T10:31:49;18.38;;;2.83;;
31402;SDS011;18039;52.188;21.024;2023-05-23T10:37:04;8.50;;;2.55;;
31402;SDS011;18039;52.188;21.024;2023-05-23T10:42:14;7.03;;;2.58;;
31402;SDS011;18039;52.188;21.024;2023-05-23T10:44:45;7.18;;;2.60;;
31402;SDS011;18039;52.188;21.024;2023-05-23T10:47:13;10.70;;;2.25;;
31402;SDS011;18039;52.188;21.024;2023-05-23T10:49:53;5.30;;;2.40;;
31402;SDS011;18039;52.188;21.024;2023-05-23T10:52:22;5.72;;;2.47;;
31402;SDS011;18039;52.188;21.024;2023-05-23T10:54:54;7.68;;;2.42;;
31402;SDS011;18039;52.188;21.024;2023-05-23T10:57:25;3.42;;;2.63;;
31402;SDS011;18039;52.188;21.024;2023-05-23T10:59:54;6.90;;;2.30;;
31402;SDS011;18039;52.188;21.024;2023-05-23T11:02:25;7.88;;;2.60;;
31402;SDS011;18039;52.188;21.024;2023-05-23T11:07:42;5.95;;;2.00;;
31402;SDS011;18039;52.188;21.024;2023-05-23T11:10:12;5.72;;;2.22;;
31402;SDS011;18039;52.188;21.024;2023-05-23T11:12:41;6.05;;;2.50;;
31402;SDS011;18039;52.188;21.024;2023-05-23T11:17:56;4.72;;;2.03;;
31402;SDS011;18039;52.188;21.024;2023-05-23T11:20:25;7.95;;;2.92;;
31402;SDS011;18039;52.188;21.024;2023-05-23T11:23:00;9.20;;;3.15;;
31402;SDS011;18039;52.188;21.024;2023-05-23T11:25:40;8.10;;;3.15;;
31402;SDS011;18039;52.188;21.024;2023-05-23T11:28:11;9.63;;;2.70;;
31402;SDS011;18039;52.188;21.024;2023-05-23T11:30:39;4.07;;;2.20;;
31402;SDS011;18039;52.188;21.024;2023-05-23T11:33:11;5.93;;;2.65;;
31402;SDS011;18039;52.188;21.024;2023-05-23T11:35:46;7.72;;;2.75;;
31402;SDS011;18039;52.188;21.024;2023-05-23T11:40:43;5.95;;;2.35;;
31402;SDS011;18039;52.188;21.024;2023-05-23T11:43:13;4.20;;;2.22;;
31402;SDS011;18039;52.188;21.024;2023-05-23T11:45:42;5.93;;;2.70;;
31402;SDS011;18039;52.188;21.024;2023-05-23T11:48:14;4.50;;;2.53;;
31402;SDS011;18039;52.188;21.024;2023-05-23T11:50:49;6.07;;;3.25;;
31402;SDS011;18039;52.188;21.024;2023-05-23T11:53:21;4.43;;;2.28;;
31402;SDS011;18039;52.188;21.024;2023-05-23T11:55:57;6.00;;;2.55;;
31402;SDS011;18039;52.188;21.024;2023-05-23T11:58:33;6.95;;;3.30;;
31402;SDS011;18039;52.188;21.024;2023-05-23T12:01:05;9.77;;;3.10;;
31402;SDS011;18039;52.188;21.024;2023-05-23T12:03:44;8.65;;;3.17;;
31402;SDS011;18039;52.188;21.024;2023-05-23T12:06:18;5.55;;;2.30;;
31402;SDS011;18039;52.188;21.024;2023-05-23T12:08:46;6.70;;;2.47;;
31402;SDS011;18039;52.188;21.024;2023-05-23T12:11:14;11.93;;;2.80;;
31402;SDS011;18039;52.188;21.024;2023-05-23T12:13:42;8.18;;;3.08;;
31402;SDS011;18039;52.188;21.024;2023-05-23T12:16:11;10.02;;;2.83;;
31402;SDS011;18039;52.188;21.024;2023-05-23T12:18:41;9.93;;;2.60;;
31402;SDS011;18039;52.188;21.024;2023-05-23T12:21:09;10.50;;;3.08;;
31402;SDS011;18039;52.188;21.024;2023-05-23T12:23:38;5.38;;;3.03;;
31402;SDS011;18039;52.188;21.024;2023-05-23T12:26:05;3.78;;;2.78;;
31402;SDS011;18039;52.188;21.024;2023-05-23T12:28:38;5.55;;;3.15;;
31402;SDS011;18039;52.188;21.024;2023-05-23T12:36:11;5.28;;;3.00;;
31402;SDS011;18039;52.188;21.024;2023-05-23T12:38:40;7.97;;;2.67;;
31402;SDS011;18039;52.188;21.024;2023-05-23T12:41:13;5.15;;;2.92;;
31402;SDS011;18039;52.188;21.024;2023-05-23T12:46:20;5.10;;;3.00;;
31402;SDS011;18039;52.188;21.024;2023-05-23T12:48:49;6.18;;;2.83;;
31402;SDS011;18039;52.188;21.024;2023-05-23T12:51:17;8.98;;;2.67;;
31402;SDS011;18039;52.188;21.024;2023-05-23T12:53:44;6.97;;;3.00;;
31402;SDS011;18039;52.188;21.024;2023-05-23T12:56:11;8.25;;;3.63;;
31402;SDS011;18039;52.188;21.024;2023-05-23T12:58:39;9.35;;;3.15;;
31402;SDS011;18039;52.188;21.024;2023-05-23T13:01:06;4.20;;;2.67;;
31402;SDS011;18039;52.188;21.024;2023-05-23T13:03:34;7.13;;;2.50;;
31402;SDS011;18039;52.188;21.024;2023-05-23T13:06:02;5.20;;;3.17;;
31402;SDS011;18039;52.188;21.024;2023-05-23T13:08:30;7.90;;;3.83;;
31402;SDS011;18039;52.188;21.024;2023-05-23T13:10:57;7.32;;;3.17;;
31402;SDS011;18039;52.188;21.024;2023-05-23T13:13:25;13.07;;;3.22;;
31402;SDS011;18039;52.188;21.024;2023-05-23T13:15:52;7.82;;;3.00;;
31402;SDS011;18039;52.188;21.024;2023-05-23T13:18:20;8.48;;;3.13;;
31402;SDS011;18039;52.188;21.024;2023-05-23T13:20:47;8.32;;;3.05;;
31402;SDS011;18039;52.188;21.024;2023-05-23T13:23:14;6.65;;;2.65;;
31402;SDS011;18039;52.188;21.024;2023-05-23T13:25:42;5.43;;;2.90;;
31402;SDS011;18039;52.188;21.024;2023-05-23T13:28:10;6.78;;;2.70;;
31402;SDS011;18039;52.188;21.024;2023-05-23T13:30:37;7.10;;;3.20;;
31402;SDS011;18039;52.188;21.024;2023-05-23T13:33:05;5.03;;;2.78;;
31402;SDS011;18039;52.188;21.024;2023-05-23T13:35:32;5.10;;;3.00;;
31402;SDS011;18039;52.188;21.024;2023-05-23T13:37:59;8.75;;;3.05;;
31402;SDS011;18039;52.188;21.024;2023-05-23T13:40:27;3.88;;;2.65;;
31402;SDS011;18039;52.188;21.024;2023-05-23T13:42:54;5.97;;;2.88;;
31402;SDS011;18039;52.188;21.024;2023-05-23T13:45:22;8.65;;;2.72;;
31402;SDS011;18039;52.188;21.024;2023-05-23T13:47:49;6.60;;;3.15;;
31402;SDS011;18039;52.188;21.024;2023-05-23T13:50:17;4.00;;;2.63;;
31402;SDS011;18039;52.188;21.024;2023-05-23T13:52:47;5.68;;;2.78;;
31402;SDS011;18039;52.188;21.024;2023-05-23T13:55:15;6.00;;;3.33;;
31402;SDS011;18039;52.188;21.024;2023-05-23T13:57:43;7.50;;;2.95;;
31402;SDS011;18039;52.188;21.024;2023-05-23T14:00:11;5.68;;;2.90;;
31402;SDS011;18039;52.188;21.024;2023-05-23T14:02:39;12.63;;;3.15;;
31402;SDS011;18039;52.188;21.024;2023-05-23T14:05:06;9.82;;;3.40;;
31402;SDS011;18039;52.188;21.024;2023-05-23T14:07:35;6.82;;;2.83;;
31402;SDS011;18039;52.188;21.024;2023-05-23T14:10:02;10.68;;;3.22;;
31402;SDS011;18039;52.188;21.024;2023-05-23T14:12:31;6.07;;;2.90;;
31402;SDS011;18039;52.188;21.024;2023-05-23T14:14:58;8.68;;;3.00;;
31402;SDS011;18039;52.188;21.024;2023-05-23T14:17:25;13.75;;;3.35;;
31402;SDS011;18039;52.188;21.024;2023-05-23T14:19:53;7.82;;;3.08;;
31402;SDS011;18039;52.188;21.024;2023-05-23T14:22:21;6.05;;;3.15;;
31402;SDS011;18039;52.188;21.024;2023-05-23T14:24:48;9.52;;;3.42;;
31402;SDS011;18039;52.188;21.024;2023-05-23T14:27:16;8.93;;;2.85;;
31402;SDS011;18039;52.188;21.024;2023-05-23T14:29:44;5.05;;;2.80;;
31402;SDS011;18039;52.188;21.024;2023-05-23T14:32:13;7.55;;;3.30;;
31402;SDS011;18039;52.188;21.024;2023-05-23T14:34:40;7.43;;;3.40;;
31402;SDS011;18039;52.188;21.024;2023-05-23T14:37:07;6.05;;;3.05;;
31402;SDS011;18039;52.188;21.024;2023-05-23T14:39:35;4.97;;;2.90;;
31402;SDS011;18039;52.188;21.024;2023-05-23T14:42:02;11.02;;;3.20;;
31402;SDS011;18039;52.188;21.024;2023-05-23T14:44:30;4.38;;;2.90;;
31402;SDS011;18039;52.188;21.024;2023-05-23T14:46:57;4.85;;;3.50;;
31402;SDS011;18039;52.188;21.024;2023-05-23T14:49:24;7.35;;;2.83;;
31402;SDS011;18039;52.188;21.024;2023-05-23T14:51:52;6.57;;;3.35;;
31402;SDS011;18039;52.188;21.024;2023-05-23T14:54:19;7.82;;;3.30;;
31402;SDS011;18039;52.188;21.024;2023-05-23T14:56:47;6.85;;;3.00;;
31402;SDS011;18039;52.188;21.024;2023-05-23T14:59:18;8.25;;;3.70;;
31402;SDS011;18039;52.188;21.024;2023-05-23T15:01:46;5.88;;;2.95;;
31402;SDS011;18039;52.188;21.024;2023-05-23T15:04:13;5.57;;;2.70;;
31402;SDS011;18039;52.188;21.024;2023-05-23T15:06:41;5.15;;;2.67;;
31402;SDS011;18039;52.188;21.024;2023-05-23T15:09:08;5.80;;;2.72;;
31402;SDS011;18039;52.188;21.024;2023-05-23T15:11:36;5.63;;;2.40;;
31402;SDS011;18039;52.188;21.024;2023-05-23T15:14:04;4.93;;;3.13;;
31402;SDS011;18039;52.188;21.024;2023-05-23T15:16:32;8.65;;;2.78;;
31402;SDS011;18039;52.188;21.024;2023-05-23T15:19:03;6.88;;;2.95;;